createdAt,value
2023-05-22T00:00:39.264Z,28.97
2023-05-22T00:03:08.604Z,25.43
2023-05-22T00:05:39.356Z,35.13
2023-05-22T00:08:11.800Z,27.50
2023-05-22T00:10:40.399Z,28.23
2023-05-22T00:13:08.942Z,25.03
2023-05-22T00:15:37.367Z,26.40
2023-05-22T00:18:06.424Z,30.43
2023-05-22T00:20:38.843Z,31.43
2023-05-22T00:23:12.190Z,32.63
2023-05-22T00:25:41.504Z,26.80
2023-05-22T00:28:09.876Z,25.80
2023-05-22T00:30:38.919Z,26.37
2023-05-22T00:33:07.764Z,28.80
2023-05-22T00:35:36.360Z,27.90
2023-05-22T00:38:05.457Z,26.63
2023-05-22T00:40:35.302Z,31.70
2023-05-22T00:43:08.482Z,26.03
2023-05-22T00:45:37.305Z,30.70
2023-05-22T00:48:06.197Z,35.47
2023-05-22T00:50:34.695Z,30.70
2023-05-22T00:53:03.180Z,24.40
2023-05-22T00:55:31.640Z,30.93
2023-05-22T00:58:01.640Z,28.87
2023-05-22T01:00:30.060Z,25.77
2023-05-22T01:02:58.486Z,30.07
2023-05-22T01:05:26.943Z,27.87
2023-05-22T01:07:57.180Z,25.57
2023-05-22T01:10:25.846Z,27.60
2023-05-22T01:12:57.199Z,30.07
2023-05-22T01:15:28.627Z,37.40
2023-05-22T01:18:00.256Z,30.07
2023-05-22T01:20:30.312Z,28.73
2023-05-22T01:23:17.748Z,32.40
2023-05-22T01:25:53.026Z,34.10
2023-05-22T01:28:26.611Z,31.03
2023-05-22T01:30:58.263Z,30.60
2023-05-22T01:33:27.512Z,27.60
2023-05-22T01:35:56.275Z,28.97
2023-05-22T01:38:24.733Z,27.17
2023-05-22T01:40:53.398Z,29.07
2023-05-22T01:43:21.902Z,34.23
2023-05-22T01:45:50.483Z,31.90
2023-05-22T01:48:20.512Z,33.13
2023-05-22T01:50:49.692Z,32.97
2023-05-22T01:53:19.635Z,34.60
2023-05-22T01:55:48.480Z,29.80
2023-05-22T01:58:18.634Z,37.53
2023-05-22T02:00:47.428Z,34.80
2023-05-22T02:03:17.706Z,35.07
2023-05-22T02:05:47.772Z,26.33
2023-05-22T02:08:16.370Z,29.33
2023-05-22T02:10:44.918Z,38.50
2023-05-22T02:13:13.537Z,30.07
2023-05-22T02:15:42.135Z,32.60
2023-05-22T02:18:13.105Z,32.03
2023-05-22T02:20:41.782Z,32.90
2023-05-22T02:23:11.973Z,31.63
2023-05-22T02:25:40.899Z,36.53
2023-05-22T02:28:09.310Z,38.17
2023-05-22T02:30:37.921Z,43.77
2023-05-22T02:33:06.698Z,35.33
2023-05-22T02:35:35.256Z,33.20
2023-05-22T02:38:03.766Z,38.03
2023-05-22T02:40:33.634Z,36.53
2023-05-22T02:43:02.122Z,33.07
2023-05-22T02:45:30.623Z,32.27
2023-05-22T02:48:01.563Z,38.20
2023-05-22T02:50:30.114Z,38.97
2023-05-22T02:52:58.722Z,39.93
2023-05-22T02:55:27.219Z,35.30
2023-05-22T02:57:57.089Z,40.80
2023-05-22T03:00:25.715Z,35.10
2023-05-22T03:02:54.266Z,41.67
2023-05-22T03:05:23.164Z,35.73
2023-05-22T03:07:52.805Z,32.97
2023-05-22T03:10:21.368Z,35.37
2023-05-22T03:12:51.805Z,43.93
2023-05-22T03:15:21.808Z,38.43
2023-05-22T03:17:50.275Z,35.47
2023-05-22T03:20:19.096Z,33.40
2023-05-22T03:22:47.746Z,32.53
2023-05-22T03:25:16.189Z,33.67
2023-05-22T03:27:44.573Z,31.57
2023-05-22T03:30:14.051Z,35.17
2023-05-22T03:32:43.821Z,32.20
2023-05-22T03:35:13.187Z,37.17
2023-05-22T03:37:41.609Z,35.93
2023-05-22T03:40:10.601Z,34.20
2023-05-22T03:42:39.042Z,37.87
2023-05-22T03:45:08.207Z,38.57
2023-05-22T03:47:36.747Z,35.07
2023-05-22T03:50:06.909Z,42.53
2023-05-22T03:52:35.687Z,36.60
2023-05-22T03:55:04.452Z,45.27
2023-05-22T03:57:32.929Z,41.93
2023-05-22T04:00:09.471Z,33.43
2023-05-22T04:02:39.947Z,40.43
2023-05-22T04:05:10.984Z,33.43
2023-05-22T04:07:39.494Z,35.07
2023-05-22T04:10:08.439Z,40.40
2023-05-22T04:12:39.844Z,29.90
2023-05-22T04:15:09.445Z,33.63
2023-05-22T04:17:41.215Z,31.80
2023-05-22T04:20:12.234Z,32.20
2023-05-22T04:22:41.403Z,34.50
2023-05-22T04:25:10.367Z,41.23
2023-05-22T04:27:38.813Z,32.60
2023-05-22T04:30:08.952Z,31.37
2023-05-22T04:32:38.298Z,31.60
2023-05-22T04:35:07.245Z,43.63
2023-05-22T04:37:37.277Z,33.93
2023-05-22T04:40:07.533Z,35.10
2023-05-22T04:42:37.422Z,31.83
2023-05-22T04:45:06.147Z,42.03
2023-05-22T04:47:34.807Z,34.87
2023-05-22T04:50:03.944Z,34.33
2023-05-22T04:52:32.527Z,38.37
2023-05-22T04:55:04.538Z,34.07
2023-05-22T04:57:34.298Z,42.13
2023-05-22T05:00:04.391Z,36.73
2023-05-22T05:02:32.983Z,42.50
2023-05-22T05:05:01.609Z,40.67
2023-05-22T05:07:30.067Z,42.07
2023-05-22T05:09:58.519Z,39.57
2023-05-22T05:12:28.332Z,44.03
2023-05-22T05:14:56.991Z,43.13
2023-05-22T05:17:25.517Z,45.87
2023-05-22T05:19:54.593Z,49.53
2023-05-22T05:22:23.101Z,44.43
2023-05-22T05:24:58.051Z,47.90
2023-05-22T05:27:30.841Z,48.50
2023-05-22T05:29:59.537Z,46.93
2023-05-22T05:32:28.027Z,51.13
2023-05-22T05:34:56.879Z,44.20
2023-05-22T05:37:26.093Z,52.83
2023-05-22T05:39:54.530Z,46.43
2023-05-22T05:42:23.119Z,53.20
2023-05-22T05:44:52.852Z,47.07
2023-05-22T05:47:24.145Z,53.37
2023-05-22T05:49:52.862Z,44.40
2023-05-22T05:52:21.299Z,49.00
2023-05-22T05:54:50.121Z,44.60
2023-05-22T05:57:18.550Z,38.03
2023-05-22T05:59:47.123Z,46.70
2023-05-22T06:02:18.208Z,42.37
2023-05-22T06:04:48.471Z,44.40
2023-05-22T06:07:17.629Z,44.80
2023-05-22T06:09:46.150Z,51.83
2023-05-22T06:12:14.686Z,50.97
2023-05-22T06:14:43.361Z,42.93
2023-05-22T06:17:11.852Z,43.37
2023-05-22T06:19:42.349Z,39.83
2023-05-22T06:22:11.020Z,43.17
2023-05-22T06:24:39.684Z,49.67
2023-05-22T06:27:08.508Z,44.47
2023-05-22T06:29:37.335Z,43.23
2023-05-22T06:32:06.082Z,43.37
2023-05-22T06:34:34.576Z,49.47
2023-05-22T06:37:04.468Z,46.83
2023-05-22T06:39:33.164Z,42.97
2023-05-22T06:42:01.672Z,41.93
2023-05-22T06:44:30.198Z,42.53
2023-05-22T06:46:58.987Z,48.00
2023-05-22T06:49:27.588Z,38.97
2023-05-22T06:51:59.173Z,43.40
2023-05-22T06:54:29.610Z,44.47
2023-05-22T06:56:58.201Z,37.23
2023-05-22T06:59:26.970Z,41.50
2023-05-22T07:01:55.702Z,40.03
2023-05-22T07:04:24.356Z,40.47
2023-05-22T07:06:52.745Z,40.33
2023-05-22T07:09:21.437Z,43.03
2023-05-22T07:11:51.312Z,37.20
2023-05-22T07:14:19.844Z,35.80
2023-05-22T07:16:48.365Z,40.00
2023-05-22T07:19:16.926Z,36.60
2023-05-22T07:21:48.363Z,37.20
2023-05-22T07:24:16.912Z,35.97
2023-05-22T07:26:46.660Z,40.67
2023-05-22T07:29:16.699Z,37.53
2023-05-22T07:31:45.332Z,35.03
2023-05-22T07:34:13.912Z,39.93
2023-05-22T07:36:42.900Z,34.70
2023-05-22T07:39:11.554Z,37.93
2023-05-22T07:41:40.410Z,38.43
2023-05-22T07:44:09.011Z,38.77
2023-05-22T07:46:39.152Z,30.23
2023-05-22T07:49:07.944Z,30.67
2023-05-22T07:51:36.652Z,35.43
2023-05-22T07:54:05.147Z,34.10
2023-05-22T07:56:34.424Z,36.90
2023-05-22T07:59:02.963Z,29.70
2023-05-22T08:01:31.493Z,34.60
2023-05-22T08:04:01.813Z,36.37
2023-05-22T08:06:31.156Z,31.73
2023-05-22T08:09:00.151Z,32.40
2023-05-22T08:11:28.584Z,29.80
2023-05-22T08:13:57.116Z,33.83
2023-05-22T08:16:26.118Z,29.00
2023-05-22T08:18:54.785Z,31.73
2023-05-22T08:21:24.684Z,32.33
2023-05-22T08:23:53.156Z,31.57
2023-05-22T08:26:21.658Z,28.70
2023-05-22T08:28:50.071Z,31.10
2023-05-22T08:31:18.560Z,32.83
2023-05-22T08:33:47.059Z,23.30
2023-05-22T08:36:15.531Z,25.37
2023-05-22T08:38:45.511Z,26.70
2023-05-22T08:41:17.247Z,27.13
2023-05-22T08:43:45.886Z,26.03
2023-05-22T08:46:16.342Z,32.40
2023-05-22T08:48:45.068Z,31.80
2023-05-22T08:51:14.563Z,31.23
2023-05-22T08:53:43.128Z,28.50
2023-05-22T08:56:12.961Z,27.03
2023-05-22T08:58:41.757Z,26.60
2023-05-22T09:01:10.217Z,33.23
2023-05-22T09:03:38.645Z,29.80
2023-05-22T09:06:09.406Z,32.60
2023-05-22T09:08:38.021Z,36.17
2023-05-22T09:11:06.632Z,26.57
2023-05-22T09:13:36.608Z,29.17
2023-05-22T09:16:11.052Z,26.37
2023-05-22T09:18:40.671Z,23.37
2023-05-22T09:21:21.710Z,22.57
2023-05-22T09:24:01.754Z,28.87
2023-05-22T09:26:30.394Z,23.40
2023-05-22T09:29:00.786Z,27.20
2023-05-22T09:31:30.358Z,27.17
2023-05-22T09:33:58.973Z,24.80
2023-05-22T09:36:33.400Z,25.83
2023-05-22T09:39:02.632Z,27.33
2023-05-22T09:41:31.450Z,23.03
2023-05-22T09:44:11.668Z,28.63
2023-05-22T09:46:43.325Z,27.40
2023-05-22T09:49:15.079Z,25.77
2023-05-22T09:51:45.979Z,22.27
2023-05-22T09:54:14.439Z,22.67
2023-05-22T09:56:42.872Z,23.73
2023-05-22T09:59:12.861Z,24.90
2023-05-22T10:01:42.648Z,25.80
2023-05-22T10:04:12.060Z,28.47
2023-05-22T10:06:40.607Z,25.03
2023-05-22T10:09:09.252Z,24.47
2023-05-22T10:11:37.654Z,25.67
2023-05-22T10:14:07.681Z,23.97
2023-05-22T10:16:38.446Z,23.53
2023-05-22T10:19:08.573Z,28.57
2023-05-22T10:21:38.179Z,33.00
2023-05-22T10:24:06.908Z,27.07
2023-05-22T10:26:38.250Z,28.70
2023-05-22T10:29:07.134Z,25.13
2023-05-22T10:31:40.574Z,25.03
2023-05-22T10:34:10.005Z,24.93
2023-05-22T10:36:40.981Z,24.80
2023-05-22T10:39:12.829Z,24.20
2023-05-22T10:41:41.992Z,27.87
2023-05-22T10:44:10.929Z,28.67
2023-05-22T10:46:40.786Z,24.20
2023-05-22T10:49:09.490Z,21.50
2023-05-22T10:51:40.788Z,22.97
2023-05-22T10:54:09.274Z,21.60
2023-05-22T10:56:38.282Z,25.23
2023-05-22T10:59:08.327Z,21.40
2023-05-22T11:01:38.778Z,23.33
2023-05-22T11:04:13.459Z,24.17
2023-05-22T11:06:42.472Z,22.97
2023-05-22T11:09:29.092Z,23.33
2023-05-22T11:12:17.173Z,19.23
2023-05-22T11:14:45.956Z,22.43
2023-05-22T11:17:14.827Z,27.07
2023-05-22T11:19:44.794Z,24.57
2023-05-22T11:22:13.939Z,21.53
2023-05-22T11:24:42.525Z,25.27
2023-05-22T11:27:13.084Z,20.73
2023-05-22T11:29:44.605Z,22.67
2023-05-22T11:32:17.418Z,20.43
2023-05-22T11:34:50.184Z,25.97
2023-05-22T11:37:20.040Z,26.07
2023-05-22T11:39:52.319Z,31.67
2023-05-22T11:42:20.981Z,25.77
2023-05-22T11:44:49.499Z,28.33
2023-05-22T11:47:18.048Z,22.60
2023-05-22T11:49:48.073Z,23.50
2023-05-22T11:52:18.000Z,24.17
2023-05-22T11:54:49.044Z,25.57
2023-05-22T11:57:17.614Z,19.60
2023-05-22T11:59:47.599Z,26.57
2023-05-22T12:02:16.163Z,22.83
2023-05-22T12:04:44.539Z,26.80
2023-05-22T12:07:14.719Z,27.30
2023-05-22T12:09:43.948Z,23.77
2023-05-22T12:12:12.483Z,23.03
2023-05-22T12:14:40.903Z,24.33
2023-05-22T12:17:09.392Z,23.00
2023-05-22T12:19:39.071Z,22.87
2023-05-22T12:22:08.684Z,24.57
2023-05-22T12:24:41.981Z,24.17
2023-05-22T12:27:10.964Z,22.53
2023-05-22T12:29:39.444Z,24.90
2023-05-22T12:32:09.175Z,23.57
2023-05-22T12:34:37.930Z,23.93
2023-05-22T12:37:09.260Z,21.13
2023-05-22T12:39:38.368Z,25.53
2023-05-22T12:42:09.617Z,21.77
2023-05-22T12:44:38.795Z,21.10
2023-05-22T12:47:07.910Z,23.30
2023-05-22T12:49:36.476Z,20.00
2023-05-22T12:52:05.005Z,19.77
2023-05-22T12:54:33.536Z,19.97
2023-05-22T12:57:02.987Z,15.27
2023-05-22T12:59:34.126Z,14.80
2023-05-22T13:02:03.557Z,15.53
2023-05-22T13:04:32.431Z,16.33
2023-05-22T13:07:01.280Z,21.10
2023-05-22T13:09:30.974Z,13.80
2023-05-22T13:12:00.598Z,16.10
2023-05-22T13:14:30.254Z,14.50
2023-05-22T13:17:01.315Z,15.40
2023-05-22T13:19:30.571Z,12.70
2023-05-22T13:21:59.437Z,12.90
2023-05-22T13:24:28.358Z,13.60
2023-05-22T13:26:56.929Z,11.53
2023-05-22T13:29:28.261Z,12.37
2023-05-22T13:31:57.046Z,14.10
2023-05-22T13:34:27.476Z,12.17
2023-05-22T13:36:56.613Z,12.00
2023-05-22T13:39:25.096Z,11.53
2023-05-22T13:41:54.049Z,11.20
2023-05-22T13:44:22.751Z,9.70
2023-05-22T13:46:51.683Z,11.13
2023-05-22T13:49:20.387Z,11.60
2023-05-22T13:51:50.728Z,9.30
2023-05-22T13:54:20.035Z,13.90
2023-05-22T13:56:48.632Z,9.43
2023-05-22T13:59:18.596Z,11.63
2023-05-22T14:01:47.390Z,9.80
2023-05-22T14:04:16.530Z,9.97
2023-05-22T14:06:45.291Z,12.33
2023-05-22T14:09:15.556Z,10.30
2023-05-22T14:11:46.092Z,14.13
2023-05-22T14:14:15.669Z,12.93
2023-05-22T14:16:44.745Z,14.13
2023-05-22T14:19:15.112Z,11.00
2023-05-22T14:21:53.574Z,12.43
2023-05-22T14:24:23.577Z,10.73
2023-05-22T14:26:53.424Z,10.93
2023-05-22T14:29:22.607Z,12.90
2023-05-22T14:31:52.114Z,9.23
2023-05-22T14:34:21.331Z,9.90
2023-05-22T14:36:50.485Z,18.57
2023-05-22T14:39:19.217Z,12.07
2023-05-22T14:41:49.450Z,10.97
2023-05-22T14:44:22.794Z,10.57
2023-05-22T14:46:53.740Z,13.30
2023-05-22T14:49:22.877Z,9.27
2023-05-22T14:51:51.743Z,9.00
2023-05-22T14:54:21.665Z,10.70
2023-05-22T14:56:52.053Z,11.33
2023-05-22T14:59:20.986Z,11.43
2023-05-22T15:01:50.587Z,12.17
2023-05-22T15:04:19.696Z,11.03
2023-05-22T15:06:48.337Z,9.80
2023-05-22T15:09:17.190Z,13.53
2023-05-22T15:11:49.476Z,10.10
2023-05-22T15:14:20.569Z,11.93
2023-05-22T15:16:50.330Z,10.47
2023-05-22T15:19:19.285Z,10.83
2023-05-22T15:21:48.313Z,11.53
2023-05-22T15:24:17.381Z,13.43
2023-05-22T15:26:46.398Z,12.23
2023-05-22T15:29:14.904Z,10.80
2023-05-22T15:31:45.840Z,9.23
2023-05-22T15:34:15.210Z,9.33
2023-05-22T15:36:44.263Z,10.20
2023-05-22T15:39:13.321Z,10.40
2023-05-22T15:41:46.636Z,8.97
2023-05-22T15:44:20.936Z,7.80
2023-05-22T15:46:50.960Z,9.87
2023-05-22T15:49:19.562Z,8.23
2023-05-22T15:51:48.914Z,8.37
2023-05-22T15:54:18.101Z,8.37
2023-05-22T15:56:46.632Z,9.83
2023-05-22T15:59:15.874Z,8.97
2023-05-22T16:01:45.472Z,10.57
2023-05-22T16:04:16.016Z,7.60
2023-05-22T16:06:45.212Z,8.23
2023-05-22T16:09:16.334Z,10.53
2023-05-22T16:11:45.224Z,7.60
2023-05-22T16:14:14.062Z,11.00
2023-05-22T16:16:43.615Z,7.70
2023-05-22T16:19:12.052Z,13.43
2023-05-22T16:21:42.063Z,7.77
2023-05-22T16:24:11.122Z,8.17
2023-05-22T16:26:39.703Z,9.50
2023-05-22T16:29:08.938Z,9.97
2023-05-22T16:31:37.513Z,11.27
2023-05-22T16:34:06.145Z,14.43
2023-05-22T16:36:34.654Z,12.80
2023-05-22T16:39:04.567Z,13.00
2023-05-22T16:41:32.915Z,10.53
2023-05-22T16:44:01.485Z,13.50
2023-05-22T16:46:30.040Z,7.93
2023-05-22T16:48:58.600Z,12.30
2023-05-22T16:51:27.423Z,10.83
2023-05-22T16:53:56.230Z,10.50
2023-05-22T16:56:26.687Z,11.83
2023-05-22T16:58:56.774Z,10.83
2023-05-22T17:01:26.196Z,14.80
2023-05-22T17:03:56.044Z,13.07
2023-05-22T17:06:25.707Z,12.47
2023-05-22T17:08:55.390Z,13.00
2023-05-22T17:11:26.061Z,14.70
2023-05-22T17:13:56.973Z,13.67
2023-05-22T17:16:25.974Z,15.10
2023-05-22T17:18:55.237Z,15.77
2023-05-22T17:21:25.262Z,15.53
2023-05-22T17:23:54.515Z,14.00
2023-05-22T17:26:23.509Z,17.53
2023-05-22T17:28:52.437Z,12.83
2023-05-22T17:31:23.040Z,18.07
2023-05-22T17:33:51.526Z,17.63
2023-05-22T17:36:21.566Z,21.17
2023-05-22T17:38:51.946Z,12.57
2023-05-22T17:41:21.117Z,14.97
2023-05-22T17:43:50.869Z,18.93
2023-05-22T17:46:19.966Z,19.50
2023-05-22T17:48:51.477Z,16.63
2023-05-22T17:51:20.785Z,17.80
2023-05-22T17:53:49.519Z,20.87
2023-05-22T17:56:18.811Z,16.90
2023-05-22T17:58:47.913Z,18.97
2023-05-22T18:01:17.443Z,25.57
2023-05-22T18:03:46.528Z,22.50
2023-05-22T18:06:17.033Z,22.10
2023-05-22T18:08:45.895Z,28.30
2023-05-22T18:11:14.668Z,24.43
2023-05-22T18:13:46.603Z,21.83
2023-05-22T18:16:15.835Z,19.63
2023-05-22T18:18:44.420Z,18.67
2023-05-22T18:21:13.147Z,23.27
2023-05-22T18:23:46.113Z,21.40
2023-05-22T18:26:15.605Z,22.30
2023-05-22T18:28:44.873Z,27.40
2023-05-22T18:31:14.119Z,20.13
2023-05-22T18:33:44.884Z,26.57
2023-05-22T18:36:15.080Z,20.30
2023-05-22T18:38:46.225Z,23.93
2023-05-22T18:41:14.837Z,29.70
2023-05-22T18:43:43.933Z,20.50
2023-05-22T18:46:12.872Z,19.43
2023-05-22T18:48:41.404Z,22.83
2023-05-22T18:51:10.157Z,21.13
2023-05-22T18:53:38.969Z,21.07
2023-05-22T18:56:09.092Z,24.40
2023-05-22T18:58:41.429Z,21.20
2023-05-22T19:01:10.488Z,24.70
2023-05-22T19:03:40.048Z,24.87
2023-05-22T19:06:09.177Z,22.50
2023-05-22T19:08:37.878Z,22.00
2023-05-22T19:11:08.075Z,26.47
2023-05-22T19:13:38.852Z,22.73
2023-05-22T19:16:11.198Z,24.23
2023-05-22T19:18:41.134Z,27.03
2023-05-22T19:21:10.596Z,25.03
2023-05-22T19:23:39.397Z,27.17
2023-05-22T19:26:08.455Z,31.40
2023-05-22T19:28:39.422Z,24.73
2023-05-22T19:31:08.652Z,23.70
2023-05-22T19:33:38.547Z,28.03
2023-05-22T19:36:08.033Z,28.43
2023-05-22T19:38:37.091Z,28.77
2023-05-22T19:41:06.420Z,25.43
2023-05-22T19:43:36.564Z,23.60
2023-05-22T19:46:09.089Z,20.47
2023-05-22T19:48:37.629Z,24.00
2023-05-22T19:51:07.132Z,24.57
2023-05-22T19:53:35.753Z,26.17
2023-05-22T19:56:04.502Z,32.33
2023-05-22T19:58:33.120Z,27.80
2023-05-22T20:01:01.722Z,27.10
2023-05-22T20:03:31.723Z,39.00
2023-05-22T20:06:00.636Z,29.03
2023-05-22T20:08:29.227Z,35.30
2023-05-22T20:10:57.684Z,38.00
2023-05-22T20:13:26.216Z,36.53
2023-05-22T20:15:54.905Z,38.63
2023-05-22T20:18:23.629Z,34.37
2023-05-22T20:20:53.677Z,29.97
2023-05-22T20:23:22.188Z,33.10
2023-05-22T20:25:50.924Z,30.60
2023-05-22T20:28:19.474Z,29.80
2023-05-22T20:30:47.938Z,30.00
2023-05-22T20:33:17.722Z,28.67
2023-05-22T20:35:48.864Z,28.90
2023-05-22T20:38:20.350Z,26.60
2023-05-22T20:40:48.881Z,21.93
2023-05-22T20:43:18.651Z,24.93
2023-05-22T20:45:47.197Z,21.27
2023-05-22T20:48:16.719Z,24.27
2023-05-22T20:50:47.375Z,27.83
2023-05-22T20:53:15.863Z,29.67
2023-05-22T20:55:45.920Z,29.83
2023-05-22T20:58:17.613Z,24.70
2023-05-22T21:00:49.334Z,26.80
2023-05-22T21:03:18.061Z,24.23
2023-05-22T21:05:47.715Z,28.80
2023-05-22T21:08:16.466Z,21.93
2023-05-22T21:10:46.427Z,24.67
2023-05-22T21:13:15.213Z,21.33
2023-05-22T21:15:43.646Z,22.07
2023-05-22T21:18:12.371Z,26.73
2023-05-22T21:20:41.309Z,22.63
2023-05-22T21:23:09.985Z,22.20
2023-05-22T21:25:38.513Z,25.70
2023-05-22T21:28:11.733Z,21.00
2023-05-22T21:30:40.646Z,23.20
2023-05-22T21:33:09.521Z,22.07
2023-05-22T21:35:38.050Z,25.37
2023-05-22T21:38:06.625Z,18.93
2023-05-22T21:40:35.069Z,20.20
2023-05-22T21:43:03.590Z,23.40
2023-05-22T21:45:33.381Z,20.97
2023-05-22T21:48:01.934Z,19.83
2023-05-22T21:50:31.077Z,16.80
2023-05-22T21:52:59.631Z,16.87
2023-05-22T21:55:28.122Z,15.27
2023-05-22T21:57:57.216Z,14.27
2023-05-22T22:00:25.725Z,16.37
2023-05-22T22:02:57.345Z,15.20
2023-05-22T22:05:27.621Z,13.83
2023-05-22T22:07:56.132Z,16.13
2023-05-22T22:10:24.890Z,15.67
2023-05-22T22:12:53.411Z,15.10
2023-05-22T22:15:22.540Z,14.00
2023-05-22T22:17:52.436Z,13.87
2023-05-22T22:20:33.696Z,14.00
2023-05-22T22:23:11.769Z,18.50
2023-05-22T22:25:40.212Z,19.17
2023-05-22T22:28:08.839Z,18.87
2023-05-22T22:30:37.426Z,25.97
2023-05-22T22:33:06.518Z,22.40
2023-05-22T22:35:36.510Z,25.80
2023-05-22T22:38:04.910Z,23.17
2023-05-22T22:40:33.711Z,20.70
2023-05-22T22:43:02.107Z,23.80
2023-05-22T22:45:30.916Z,16.73
2023-05-22T22:48:00.722Z,20.43
2023-05-22T22:50:29.854Z,19.63
2023-05-22T22:52:59.691Z,24.43
2023-05-22T22:55:28.223Z,25.60
2023-05-22T22:57:57.311Z,25.23
2023-05-22T23:00:25.965Z,27.37
2023-05-22T23:02:54.610Z,25.63
2023-05-22T23:05:23.467Z,28.03
2023-05-22T23:07:51.989Z,38.37
2023-05-22T23:10:22.421Z,33.00
2023-05-22T23:12:50.998Z,32.20
2023-05-22T23:15:19.599Z,31.63
2023-05-22T23:17:50.162Z,31.43
2023-05-22T23:20:20.204Z,34.03
2023-05-22T23:22:48.641Z,33.27
2023-05-22T23:25:17.542Z,35.07
2023-05-22T23:27:47.449Z,33.83
2023-05-22T23:30:15.971Z,33.40
2023-05-22T23:32:44.554Z,31.37
2023-05-22T23:35:13.320Z,33.07
2023-05-22T23:37:41.760Z,31.63
2023-05-22T23:40:10.878Z,32.23
2023-05-22T23:42:39.254Z,31.07
2023-05-22T23:45:10.015Z,30.73
2023-05-22T23:47:38.893Z,24.17
2023-05-22T23:50:07.964Z,34.17
2023-05-22T23:52:36.724Z,26.83
2023-05-22T23:55:05.256Z,25.00
2023-05-22T23:57:33.653Z,22.50
